Time;durP1;ratioP1;P1;durP2;ratioP2;P2;SDS_P1;SDS_P2;PMS_P1;PMS_P2;Temp;Humidity;BMP_temperature;BMP_pressure;BME280_temperature;BME280_humidity;BME280_pressure;Samples;Min_cycle;Max_cycle;Signal;HPM_P1;HPM_P2
2021/07/10 00:02:05;;;;;;;6.97;6.07;;;22.50;63.80;;;;;;5052613;28;20167;-63
2021/07/10 00:04:31;;;;;;;6.20;5.60;;;22.50;63.80;;;;;;5052176;28;20207;-63
2021/07/10 00:06:58;;;;;;;6.20;5.60;;;22.50;63.80;;;;;;5051798;28;20179;-62
2021/07/10 00:09:24;;;;;;;6.25;5.75;;;22.50;63.70;;;;;;5052583;28;20183;-62
2021/07/10 00:11:49;;;;;;;6.10;5.60;;;22.50;63.70;;;;;;5051429;28;20350;-62
2021/07/10 00:14:15;;;;;;;6.60;6.10;;;22.50;63.80;;;;;;5052372;28;20179;-63
2021/07/10 00:16:40;;;;;;;6.65;5.43;;;22.50;63.70;;;;;;5051816;28;20537;-63
2021/07/10 00:19:06;;;;;;;6.13;5.60;;;22.50;63.70;;;;;;5051250;28;20179;-64
2021/07/10 00:21:31;;;;;;;6.13;5.63;;;22.50;63.70;;;;;;5051905;28;20229;-64
2021/07/10 00:23:57;;;;;;;6.03;5.53;;;22.50;63.70;;;;;;5052146;28;20211;-63
2021/07/10 00:26:22;;;;;;;5.53;5.03;;;22.50;63.70;;;;;;5051404;28;20175;-63
2021/07/10 00:28:48;;;;;;;5.70;5.20;;;22.50;63.70;;;;;;5051957;28;20688;-62
2021/07/10 00:31:16;;;;;;;5.88;5.38;;;22.50;63.70;;;;;;5062703;28;20170;-62
2021/07/10 00:33:42;;;;;;;6.10;5.60;;;22.50;63.70;;;;;;5072828;28;20530;-63
2021/07/10 00:36:08;;;;;;;6.18;5.68;;;22.50;63.70;;;;;;5075710;28;20178;-63
2021/07/10 00:38:33;;;;;;;5.68;5.18;;;22.50;63.70;;;;;;5075495;28;20179;-64
2021/07/10 00:41:00;;;;;;;5.90;5.40;;;22.50;63.70;;;;;;5075081;28;20166;-63
2021/07/10 00:43:25;;;;;;;6.45;5.95;;;22.50;63.60;;;;;;5075628;28;20297;-64
2021/07/10 00:45:51;;;;;;;6.03;5.53;;;22.50;63.60;;;;;;5075313;28;20274;-64
2021/07/10 00:48:16;;;;;;;5.70;5.20;;;22.40;63.60;;;;;;5074807;28;20162;-63
2021/07/10 00:50:42;;;;;;;5.93;5.43;;;22.50;63.60;;;;;;5075299;28;20203;-63
2021/07/10 00:53:07;;;;;;;5.82;5.32;;;22.50;63.60;;;;;;5075477;28;20210;-63
2021/07/10 00:55:33;;;;;;;6.10;5.60;;;22.40;63.50;;;;;;5074586;28;20175;-63
2021/07/10 00:57:59;;;;;;;6.28;5.72;;;22.50;64.40;;;;;;5074367;28;20167;-63
2021/07/10 01:00:25;;;;;;;6.30;5.80;;;22.40;63.50;;;;;;5073598;28;20222;-63
2021/07/10 01:02:52;;;;;;;5.80;5.20;;;22.40;63.50;;;;;;5074176;28;20174;-64
2021/07/10 01:05:20;;;;;;;6.70;6.10;;;22.50;63.60;;;;;;5075326;28;20647;-63
2021/07/10 01:07:45;;;;;;;6.38;5.78;;;22.40;63.50;;;;;;5074726;28;20653;-63
2021/07/10 01:10:11;;;;;;;6.63;6.03;;;22.40;63.50;;;;;;5074526;28;20206;-62
2021/07/10 01:12:37;;;;;;;6.97;6.35;;;22.40;63.50;;;;;;5074934;28;20213;-62
2021/07/10 01:15:04;;;;;;;6.30;5.70;;;22.40;63.50;;;;;;5074236;28;20629;-62
2021/07/10 01:17:32;;;;;;;6.60;6.00;;;22.40;63.50;;;;;;5074758;28;20254;-63
2021/07/10 01:20:11;;;;;;;6.00;5.50;;;22.40;63.50;;;;;;5074701;28;20625;-64
2021/07/10 01:22:37;;;;;;;5.85;5.35;;;22.40;63.50;;;;;;5073769;28;20230;-63
2021/07/10 01:25:04;;;;;;;6.47;5.97;;;22.40;63.50;;;;;;5074731;28;20688;-63
2021/07/10 01:27:29;;;;;;;5.88;5.38;;;22.40;63.50;;;;;;5074700;28;20170;-63
2021/07/10 01:29:55;;;;;;;6.55;6.05;;;22.40;63.50;;;;;;5074359;28;20182;-63
2021/07/10 01:32:21;;;;;;;6.35;5.82;;;22.40;63.40;;;;;;5054596;28;20699;-63
2021/07/10 01:34:47;;;;;;;6.38;5.70;;;22.40;63.40;;;;;;5054215;28;20183;-63
2021/07/10 01:37:13;;;;;;;5.90;5.35;;;22.40;63.40;;;;;;5054113;28;20176;-63
2021/07/10 01:39:39;;;;;;;6.78;6.15;;;22.40;63.50;;;;;;5054555;28;20229;-64
2021/07/10 01:42:05;;;;;;;5.72;5.22;;;22.40;63.50;;;;;;5054679;28;20638;-63
2021/07/10 01:44:30;;;;;;;7.05;5.90;;;22.40;63.50;;;;;;5053241;28;20210;-63
2021/07/10 01:46:56;;;;;;;5.90;5.40;;;22.40;63.50;;;;;;5054324;28;20203;-63
2021/07/10 01:49:21;;;;;;;6.55;5.97;;;22.40;63.50;;;;;;5054325;28;20236;-62
2021/07/10 01:51:47;;;;;;;6.47;5.88;;;22.40;63.50;;;;;;5053277;28;20175;-63
2021/07/10 01:54:12;;;;;;;5.93;5.43;;;22.40;63.50;;;;;;5054264;28;20171;-63
2021/07/10 01:56:38;;;;;;;6.30;5.70;;;22.30;63.40;;;;;;5054103;28;20183;-64
2021/07/10 01:59:03;;;;;;;6.47;5.97;;;22.40;63.50;;;;;;5053631;28;20229;-63
2021/07/10 02:01:29;;;;;;;5.90;5.30;;;22.30;63.40;;;;;;5054249;28;20230;-63
2021/07/10 02:03:54;;;;;;;6.20;5.60;;;22.30;63.40;;;;;;5054057;28;20576;-64
2021/07/10 02:06:20;;;;;;;5.82;5.43;;;22.30;63.40;;;;;;5053606;28;20565;-63
2021/07/10 02:08:46;;;;;;;6.10;5.60;;;22.30;63.40;;;;;;5053498;28;20695;-63
2021/07/10 02:11:14;;;;;;;5.88;5.40;;;22.30;63.40;;;;;;5053829;28;20167;-62
2021/07/10 02:13:40;;;;;;;5.80;5.30;;;22.30;63.50;;;;;;5053611;28;20231;-63
2021/07/10 02:16:09;;;;;;;6.20;5.60;;;22.30;63.40;;;;;;5054036;28;20628;-63
2021/07/10 02:18:37;;;;;;;6.50;5.25;;;22.30;63.50;;;;;;5053000;28;20209;-64
2021/07/10 02:21:03;;;;;;;6.10;5.60;;;22.30;63.50;;;;;;5053748;28;20528;-65
2021/07/10 02:23:29;;;;;;;6.10;5.50;;;22.30;63.40;;;;;;5053465;28;20238;-66
2021/07/10 02:25:54;;;;;;;6.20;5.60;;;22.30;63.40;;;;;;5053008;28;20172;-64
2021/07/10 02:28:20;;;;;;;5.82;5.40;;;22.30;63.50;;;;;;5053438;28;20171;-62
2021/07/10 02:30:45;;;;;;;5.65;5.15;;;22.30;63.50;;;;;;5059739;28;20206;-63
2021/07/10 02:33:11;;;;;;;6.13;5.53;;;22.30;63.50;;;;;;5073024;28;20565;-63
2021/07/10 02:35:36;;;;;;;6.15;5.50;;;22.30;63.50;;;;;;5073301;28;20620;-63
2021/07/10 02:38:02;;;;;;;6.55;5.95;;;22.30;63.50;;;;;;5073649;28;20542;-64
2021/07/10 02:40:28;;;;;;;5.90;5.40;;;22.30;63.50;;;;;;5072735;28;20659;-64
2021/07/10 02:42:54;;;;;;;5.85;5.35;;;22.30;63.50;;;;;;5073073;28;20170;-64
2021/07/10 02:45:19;;;;;;;5.70;5.22;;;22.30;63.50;;;;;;5073132;28;20267;-64
2021/07/10 02:47:45;;;;;;;5.85;5.35;;;22.30;63.50;;;;;;5072053;28;20210;-63
2021/07/10 02:50:13;;;;;;;5.22;4.82;;;22.30;63.50;;;;;;5073385;28;20182;-63
2021/07/10 02:52:38;;;;;;;5.22;4.80;;;22.30;63.50;;;;;;5073078;28;20170;-62
2021/07/10 02:55:04;;;;;;;6.88;6.20;;;22.30;63.50;;;;;;5072110;28;20240;-62
2021/07/10 02:57:30;;;;;;;5.53;5.03;;;22.20;63.40;;;;;;5072528;28;20178;-62
2021/07/10 02:59:56;;;;;;;6.25;5.65;;;22.30;63.50;;;;;;5073075;28;20200;-63
2021/07/10 03:02:21;;;;;;;5.22;4.82;;;22.30;63.50;;;;;;5072242;28;20204;-63
2021/07/10 03:04:47;;;;;;;5.55;5.05;;;22.20;63.50;;;;;;5072883;28;20308;-63
2021/07/10 03:07:12;;;;;;;6.82;6.07;;;22.30;63.50;;;;;;5072841;28;20166;-62
2021/07/10 03:09:38;;;;;;;6.07;5.57;;;22.20;63.50;;;;;;5071970;28;20178;-62
2021/07/10 03:12:04;;;;;;;6.13;5.63;;;22.20;63.50;;;;;;5073076;28;20205;-63
2021/07/10 03:14:30;;;;;;;6.25;5.72;;;22.20;63.50;;;;;;5072336;28;20186;-62
2021/07/10 03:16:58;;;;;;;6.00;5.40;;;22.20;63.50;;;;;;5072758;28;20171;-64
2021/07/10 03:19:24;;;;;;;5.32;4.93;;;22.30;63.50;;;;;;5072877;28;20175;-65
2021/07/10 03:21:49;;;;;;;5.82;5.25;;;22.20;63.50;;;;;;5071728;28;20695;-64
2021/07/10 03:24:15;;;;;;;6.60;6.00;;;22.20;63.60;;;;;;5072888;28;20248;-63
2021/07/10 03:26:40;;;;;;;6.10;5.60;;;22.20;63.50;;;;;;5072467;28;20170;-63
2021/07/10 03:29:06;;;;;;;5.97;5.47;;;22.20;63.50;;;;;;5072253;28;20170;-63
2021/07/10 03:31:31;;;;;;;6.15;5.60;;;22.20;63.60;;;;;;5059348;28;20197;-63
2021/07/10 03:33:57;;;;;;;5.03;4.63;;;22.20;63.50;;;;;;5052837;28;20175;-64
2021/07/10 03:36:25;;;;;;;5.65;5.10;;;22.20;63.50;;;;;;5052017;28;20194;-63
2021/07/10 03:38:51;;;;;;;5.45;5.05;;;22.20;63.60;;;;;;5052327;28;20225;-64
2021/07/10 03:41:17;;;;;;;5.88;5.38;;;22.20;63.50;;;;;;5052822;28;20516;-64
2021/07/10 03:43:43;;;;;;;5.88;5.38;;;22.20;63.50;;;;;;5051577;28;20202;-65
2021/07/10 03:46:09;;;;;;;6.30;5.70;;;22.20;63.50;;;;;;5052487;28;20621;-64
2021/07/10 03:48:34;;;;;;;5.88;5.28;;;22.20;63.50;;;;;;5052355;28;20169;-63
2021/07/10 03:51:06;;;;;;;5.80;5.30;;;22.20;63.50;;;;;;5052046;28;20171;-62
2021/07/10 03:53:32;;;;;;;6.10;5.50;;;22.20;63.50;;;;;;5052220;28;20182;-63
2021/07/10 03:55:57;;;;;;;6.40;5.80;;;22.20;63.50;;;;;;5052492;28;20546;-63
2021/07/10 03:58:23;;;;;;;6.15;5.63;;;22.20;63.50;;;;;;5051648;28;20237;-64
2021/07/10 04:00:49;;;;;;;6.47;5.82;;;22.20;63.50;;;;;;5052229;28;20600;-63
2021/07/10 04:03:14;;;;;;;6.22;5.63;;;22.20;64.30;;;;;;5052400;28;20163;-63
2021/07/10 04:05:40;;;;;;;6.28;5.43;;;22.10;63.40;;;;;;5051493;28;20210;-63
2021/07/10 04:08:05;;;;;;;6.07;5.57;;;22.10;63.40;;;;;;5053551;28;20179;-63
2021/07/10 04:10:31;;;;;;;6.05;5.55;;;22.20;63.30;;;;;;5055946;28;20171;-62
2021/07/10 04:12:59;;;;;;;6.20;5.60;;;22.20;63.30;;;;;;5055209;28;20194;-62
2021/07/10 04:15:25;;;;;;;6.60;5.20;;;22.20;63.30;;;;;;5056060;28;20569;-63
2021/07/10 04:17:50;;;;;;;6.15;5.65;;;22.20;63.30;;;;;;5055426;28;20198;-64
2021/07/10 04:20:17;;;;;;;5.93;5.32;;;22.10;63.30;;;;;;5056021;28;20171;-64
2021/07/10 04:22:42;;;;;;;6.28;5.78;;;22.20;63.30;;;;;;5055315;28;20580;-63
2021/07/10 04:25:13;;;;;;;5.72;5.22;;;22.20;63.20;;;;;;5055200;28;20306;-63
2021/07/10 04:27:39;;;;;;;6.05;5.55;;;22.20;63.30;;;;;;5055578;28;20179;-63
2021/07/10 04:30:08;;;;;;;6.07;5.47;;;22.10;63.20;;;;;;5056996;28;20179;-63
2021/07/10 04:32:34;;;;;;;5.90;5.40;;;22.20;63.20;;;;;;5074865;28;20201;-63
2021/07/10 04:34:59;;;;;;;5.65;5.15;;;22.20;63.20;;;;;;5075976;28;20206;-63
2021/07/10 04:37:25;;;;;;;6.60;6.00;;;22.20;63.20;;;;;;5075451;28;20261;-64
2021/07/10 04:39:50;;;;;;;5.43;4.93;;;22.20;63.10;;;;;;5074718;28;20206;-65
2021/07/10 04:42:16;;;;;;;6.35;5.85;;;22.20;63.10;;;;;;5075501;28;20175;-64
2021/07/10 04:44:42;;;;;;;5.75;5.30;;;22.20;63.10;;;;;;5075081;28;20699;-64
2021/07/10 04:47:08;;;;;;;6.20;5.70;;;22.20;63.10;;;;;;5074925;28;20206;-64
2021/07/10 04:49:34;;;;;;;6.50;5.55;;;22.20;63.00;;;;;;5075257;28;20181;-63
2021/07/10 04:52:01;;;;;;;5.85;5.22;;;22.20;63.00;;;;;;5075367;28;20175;-63
2021/07/10 04:54:26;;;;;;;6.38;5.78;;;22.20;63.00;;;;;;5074745;28;20182;-62
2021/07/10 04:56:52;;;;;;;6.18;5.68;;;22.20;62.90;;;;;;5075175;28;20178;-63
2021/07/10 04:59:17;;;;;;;5.82;5.32;;;22.20;62.90;;;;;;5075493;28;20178;-63
2021/07/10 05:01:43;;;;;;;5.45;4.97;;;22.20;62.90;;;;;;5074486;28;20177;-63
2021/07/10 05:04:08;;;;;;;6.13;5.53;;;22.20;62.90;;;;;;5075278;28;20202;-63
2021/07/10 05:06:34;;;;;;;5.60;5.10;;;22.20;62.90;;;;;;5074808;28;20170;-62
2021/07/10 05:08:59;;;;;;;5.75;5.25;;;22.20;62.80;;;;;;5074398;28;20717;-62
2021/07/10 05:11:25;;;;;;;5.60;5.10;;;22.20;62.80;;;;;;5075124;28;20166;-62
2021/07/10 05:13:50;;;;;;;5.88;5.25;;;22.20;62.90;;;;;;5075093;28;20174;-63
2021/07/10 05:16:16;;;;;;;5.55;5.13;;;22.20;62.80;;;;;;5074224;28;20170;-63
2021/07/10 05:18:41;;;;;;;5.70;5.20;;;22.20;62.90;;;;;;5074215;28;20663;-63
2021/07/10 05:21:07;;;;;;;5.63;5.15;;;22.20;62.80;;;;;;5074446;28;20573;-63
2021/07/10 05:23:32;;;;;;;5.25;4.75;;;22.20;62.90;;;;;;5074104;28;20223;-63
2021/07/10 05:25:58;;;;;;;5.43;4.93;;;22.20;62.90;;;;;;5074878;28;20179;-62
2021/07/10 05:28:23;;;;;;;5.25;4.75;;;22.20;62.90;;;;;;5073910;28;20166;-62
2021/07/10 05:30:50;;;;;;;5.63;5.13;;;22.20;62.90;;;;;;5067342;28;20190;-62
2021/07/10 05:33:16;;;;;;;5.72;5.28;;;22.20;62.90;;;;;;5054711;28;20175;-62
2021/07/10 05:35:44;;;;;;;5.45;4.95;;;22.30;62.90;;;;;;5053667;28;20512;-63
2021/07/10 05:38:10;;;;;;;5.68;5.25;;;22.20;62.90;;;;;;5054522;28;20561;-63
2021/07/10 05:40:36;;;;;;;5.38;4.97;;;22.20;62.90;;;;;;5054154;28;20642;-63
2021/07/10 05:43:02;;;;;;;5.90;5.38;;;22.20;62.80;;;;;;5053963;28;20171;-63
2021/07/10 05:45:27;;;;;;;6.18;5.57;;;22.30;62.90;;;;;;5054516;28;20211;-63
2021/07/10 05:47:53;;;;;;;5.38;4.97;;;22.30;62.90;;;;;;5054167;28;20698;-63
2021/07/10 05:50:18;;;;;;;5.28;4.78;;;22.30;62.90;;;;;;5053492;28;20270;-62
2021/07/10 05:52:44;;;;;;;5.72;5.22;;;22.30;62.90;;;;;;5053995;28;20167;-63
2021/07/10 05:55:10;;;;;;;5.45;4.97;;;22.30;62.90;;;;;;5054039;28;20202;-62
2021/07/10 05:57:35;;;;;;;5.68;5.20;;;22.30;63.70;;;;;;5053370;28;20179;-62
2021/07/10 06:00:01;;;;;;;5.75;5.05;;;22.30;62.80;;;;;;5054192;28;20178;-63
2021/07/10 06:02:26;;;;;;;5.20;4.72;;;22.30;62.80;;;;;;5054392;28;20626;-62
2021/07/10 06:04:52;;;;;;;5.50;4.97;;;22.30;62.80;;;;;;5052931;28;20237;-63
2021/07/10 06:07:17;;;;;;;6.43;5.82;;;22.30;62.80;;;;;;5053979;28;20171;-62
2021/07/10 06:09:43;;;;;;;5.20;4.70;;;22.30;62.80;;;;;;5053537;28;20300;-62
2021/07/10 06:12:09;;;;;;;5.90;5.40;;;22.40;62.80;;;;;;5053037;28;20297;-62
2021/07/10 06:14:34;;;;;;;5.95;5.45;;;22.40;62.80;;;;;;5052696;28;20179;-62
2021/07/10 06:17:00;;;;;;;6.43;5.93;;;22.40;62.90;;;;;;5054219;28;20617;-63
2021/07/10 06:19:25;;;;;;;5.20;4.70;;;22.40;62.80;;;;;;5053169;28;20705;-63
2021/07/10 06:21:51;;;;;;;5.38;4.97;;;22.40;62.90;;;;;;5053419;28;20234;-63
2021/07/10 06:24:16;;;;;;;5.18;4.78;;;22.40;62.80;;;;;;5053642;28;20207;-63
2021/07/10 06:26:43;;;;;;;5.47;5.07;;;22.40;62.90;;;;;;5052783;28;20214;-62
2021/07/10 06:29:08;;;;;;;6.32;5.55;;;22.40;62.90;;;;;;5054072;28;20179;-62
2021/07/10 06:31:34;;;;;;;5.82;5.32;;;22.40;63.00;;;;;;5065175;28;20257;-62
2021/07/10 06:34:00;;;;;;;5.45;5.05;;;22.40;63.10;;;;;;5073610;28;20694;-63
2021/07/10 06:36:26;;;;;;;5.60;5.15;;;22.40;63.10;;;;;;5073524;28;20197;-62
2021/07/10 06:38:51;;;;;;;5.07;4.68;;;22.40;63.10;;;;;;5072579;28;20181;-63
2021/07/10 06:41:17;;;;;;;5.50;5.00;;;22.40;63.10;;;;;;5073591;28;20182;-63
2021/07/10 06:43:43;;;;;;;5.95;5.40;;;22.40;63.10;;;;;;5073073;28;20256;-64
2021/07/10 06:46:09;;;;;;;4.97;4.57;;;22.40;63.00;;;;;;5072779;28;20246;-63
2021/07/10 06:48:35;;;;;;;5.05;4.57;;;22.50;63.00;;;;;;5072412;28;20182;-63
2021/07/10 06:51:01;;;;;;;5.00;4.60;;;22.50;62.90;;;;;;5073229;28;20209;-63
2021/07/10 06:53:26;;;;;;;4.65;4.28;;;22.50;62.90;;;;;;5072549;28;20171;-63
2021/07/10 06:55:52;;;;;;;5.22;4.72;;;22.50;63.00;;;;;;5073107;28;20350;-62
2021/07/10 06:58:18;;;;;;;5.40;5.00;;;22.50;63.00;;;;;;5073361;28;20269;-63
2021/07/10 07:00:44;;;;;;;5.40;4.90;;;22.50;63.00;;;;;;5071920;28;20189;-63
2021/07/10 07:03:09;;;;;;;5.50;4.80;;;22.50;63.10;;;;;;5073174;28;20174;-63
2021/07/10 07:05:35;;;;;;;5.65;5.25;;;22.50;63.00;;;;;;5072760;28;20213;-63
2021/07/10 07:08:00;;;;;;;6.10;5.60;;;22.50;63.10;;;;;;5072263;28;20223;-62
2021/07/10 07:10:26;;;;;;;5.55;5.07;;;22.60;63.00;;;;;;5073155;28;20174;-62
2021/07/10 07:12:51;;;;;;;6.38;5.18;;;22.60;63.00;;;;;;5072740;28;20177;-63
2021/07/10 07:15:17;;;;;;;5.75;5.30;;;22.60;63.30;;;;;;5072264;28;20174;-62
2021/07/10 07:17:43;;;;;;;5.90;4.95;;;22.60;63.40;;;;;;5072601;28;20524;-63
2021/07/10 07:20:13;;;;;;;5.00;4.60;;;22.60;63.20;;;;;;5072856;28;20202;-63
2021/07/10 07:22:39;;;;;;;5.55;5.10;;;22.60;63.20;;;;;;5071592;28;20222;-63
2021/07/10 07:25:05;;;;;;;5.85;5.25;;;22.60;63.20;;;;;;5072862;28;20214;-63
2021/07/10 07:27:31;;;;;;;5.85;5.38;;;22.60;63.20;;;;;;5072977;28;20541;-62
2021/07/10 07:30:06;;;;;;;6.85;5.32;;;22.60;63.20;;;;;;5072105;28;20210;-61
2021/07/10 07:32:32;;;;;;;8.77;6.47;;;22.60;63.40;;;;;;5032632;28;20175;-62
2021/07/10 07:34:57;;;;;;;6.25;5.68;;;22.70;63.50;;;;;;5031927;28;20627;-63
2021/07/10 07:37:23;;;;;;;6.75;5.95;;;22.70;63.20;;;;;;5032726;28;20172;-69
2021/07/10 07:39:48;;;;;;;8.25;6.60;;;22.70;63.30;;;;;;5032530;28;20183;-69
2021/07/10 07:42:15;;;;;;;7.32;6.13;;;22.70;63.30;;;;;;5033397;28;20251;-71
2021/07/10 07:44:41;;;;;;;6.75;5.90;;;22.70;63.30;;;;;;5036453;28;20215;-71
2021/07/10 07:47:08;;;;;;;6.63;5.80;;;22.70;63.40;;;;;;5036800;28;20179;-69
2021/07/10 07:49:34;;;;;;;7.95;6.78;;;22.80;63.50;;;;;;5035555;28;20638;-69
2021/07/10 07:51:59;;;;;;;7.18;6.22;;;22.80;63.50;;;;;;5036713;28;20270;-68
2021/07/10 07:54:27;;;;;;;6.22;5.63;;;22.80;63.50;;;;;;5036809;28;20210;-69
2021/07/10 07:56:53;;;;;;;6.68;6.07;;;22.80;63.50;;;;;;5035641;28;20256;-67
2021/07/10 07:59:18;;;;;;;6.72;6.03;;;22.80;63.50;;;;;;5036792;28;20658;-68
2021/07/10 08:01:44;;;;;;;7.03;6.22;;;22.80;63.40;;;;;;5036230;28;20206;-67
2021/07/10 08:04:09;;;;;;;8.02;6.80;;;22.80;63.50;;;;;;5035633;28;20598;-63
2021/07/10 08:06:35;;;;;;;7.18;6.10;;;22.80;63.40;;;;;;5036391;28;20642;-62
2021/07/10 08:09:00;;;;;;;9.25;6.78;;;22.80;63.30;;;;;;5036282;28;20550;-62
2021/07/10 08:11:26;;;;;;;7.90;7.10;;;22.80;63.40;;;;;;5035734;28;20191;-62
2021/07/10 08:13:51;;;;;;;9.90;8.90;;;22.80;63.20;;;;;;5036275;28;20164;-64
2021/07/10 08:16:17;;;;;;;9.68;8.68;;;22.80;62.90;;;;;;5036304;28;20168;-64
2021/07/10 08:18:42;;;;;;;12.55;9.38;;;22.80;62.80;;;;;;5035163;28;20221;-65
2021/07/10 08:21:08;;;;;;;11.88;9.80;;;22.80;62.50;;;;;;5036367;28;20172;-65
2021/07/10 08:23:33;;;;;;;10.77;9.65;;;22.80;62.40;;;;;;5035623;28;20261;-65
2021/07/10 08:25:59;;;;;;;10.65;9.55;;;22.90;62.40;;;;;;5035550;28;20186;-65
2021/07/10 08:28:25;;;;;;;11.55;10.38;;;22.90;62.40;;;;;;5035984;28;20178;-64
2021/07/10 08:30:50;;;;;;;10.10;9.18;;;22.90;62.40;;;;;;5050392;28;20209;-65
2021/07/10 08:33:16;;;;;;;12.27;9.68;;;22.90;62.40;;;;;;5075026;28;20258;-65
2021/07/10 08:35:41;;;;;;;10.18;8.80;;;22.90;62.30;;;;;;5075527;28;20653;-67
2021/07/10 08:38:09;;;;;;;11.30;9.10;;;22.90;62.30;;;;;;5075267;28;20182;-66
2021/07/10 08:40:35;;;;;;;11.32;10.23;;;22.90;62.30;;;;;;5075543;28;20170;-65
2021/07/10 08:43:00;;;;;;;10.38;9.27;;;22.90;62.30;;;;;;5075838;28;20205;-66
2021/07/10 08:45:29;;;;;;;9.13;8.32;;;22.90;62.30;;;;;;5074703;28;21017;-66
2021/07/10 08:47:55;;;;;;;11.02;9.25;;;22.90;62.20;;;;;;5074506;28;20166;-65
2021/07/10 08:50:21;;;;;;;9.68;8.63;;;22.90;62.20;;;;;;5074381;28;20197;-65
2021/07/10 08:52:47;;;;;;;9.95;9.00;;;22.90;62.20;;;;;;5074348;28;20651;-64
2021/07/10 08:55:13;;;;;;;9.90;8.23;;;22.90;62.10;;;;;;5074454;28;20341;-65
2021/07/10 08:57:38;;;;;;;9.02;8.13;;;22.90;62.80;;;;;;5075194;28;20296;-66
2021/07/10 09:00:06;;;;;;;9.07;8.18;;;23.00;62.00;;;;;;5074618;28;20174;-65
2021/07/10 09:02:36;;;;;;;9.68;8.77;;;23.00;62.00;;;;;;5074884;28;20179;-65
2021/07/10 09:05:02;;;;;;;8.77;7.88;;;23.00;61.90;;;;;;5075141;28;20578;-65
2021/07/10 09:07:28;;;;;;;8.68;7.88;;;23.00;61.90;;;;;;5074721;28;20179;-65
2021/07/10 09:09:53;;;;;;;8.68;7.88;;;23.00;61.90;;;;;;5074944;28;20175;-63
2021/07/10 09:12:29;;;;;;;8.95;8.05;;;23.00;61.90;;;;;;5075145;28;20277;-64
2021/07/10 09:14:55;;;;;;;9.68;7.22;;;23.00;61.90;;;;;;5074575;28;20181;-64
2021/07/10 09:17:23;;;;;;;7.82;7.13;;;22.90;61.90;;;;;;5075014;28;20178;-65
2021/07/10 09:19:50;;;;;;;8.13;7.40;;;23.00;61.90;;;;;;5075164;28;20182;-65
2021/07/10 09:22:30;;;;;;;8.02;7.32;;;23.00;61.90;;;;;;5074132;28;20230;-65
2021/07/10 09:24:56;;;;;;;7.93;7.10;;;22.90;61.80;;;;;;5074916;28;20545;-63
2021/07/10 09:27:22;;;;;;;7.78;7.05;;;22.90;61.70;;;;;;5074045;28;20182;-63
2021/07/10 09:29:49;;;;;;;8.77;7.88;;;23.00;61.70;;;;;;5074710;28;20400;-68
2021/07/10 09:32:19;;;;;;;7.70;7.00;;;23.00;61.60;;;;;;5055833;28;20535;-67
2021/07/10 09:34:46;;;;;;;7.90;7.18;;;23.00;61.50;;;;;;5053932;28;20203;-69
2021/07/10 09:37:19;;;;;;;7.43;6.78;;;23.00;61.40;;;;;;5054794;28;20225;-68
2021/07/10 09:39:59;;;;;;;7.63;6.93;;;23.00;61.30;;;;;;5054476;28;20179;-68
2021/07/10 09:42:38;;;;;;;7.63;6.32;;;23.10;61.20;;;;;;5054059;28;20257;-68
2021/07/10 09:45:17;;;;;;;7.15;6.55;;;23.10;61.10;;;;;;5054504;28;20580;-68
2021/07/10 09:47:43;;;;;;;7.22;6.53;;;23.10;61.00;;;;;;5054266;28;20531;-68
2021/07/10 09:50:10;;;;;;;6.28;5.78;;;23.10;60.70;;;;;;5053789;28;20259;-69
2021/07/10 09:52:37;;;;;;;7.00;6.30;;;23.20;60.70;;;;;;5052655;28;20229;-69
2021/07/10 09:55:12;;;;;;;6.75;6.15;;;23.20;60.70;;;;;;5054525;28;20183;-69
2021/07/10 09:57:39;;;;;;;6.63;6.03;;;23.20;60.70;;;;;;5053254;28;20214;-68
2021/07/10 10:00:11;;;;;;;6.47;5.90;;;23.20;60.60;;;;;;5054019;28;20650;-68
2021/07/10 10:02:49;;;;;;;5.88;5.30;;;23.20;60.50;;;;;;5053088;28;20196;-69
2021/07/10 10:05:16;;;;;;;6.07;5.57;;;23.20;60.30;;;;;;5053925;28;20260;-71
2021/07/10 10:08:06;;;;;;;5.82;5.32;;;23.20;60.30;;;;;;5053823;28;20652;-70
2021/07/10 10:10:32;;;;;;;5.63;5.13;;;23.20;60.20;;;;;;5052701;28;20175;-66
2021/07/10 10:13:07;;;;;;;6.18;5.18;;;23.20;60.20;;;;;;5054011;28;20175;-70
2021/07/10 10:15:32;;;;;;;5.43;4.93;;;23.30;60.30;;;;;;5053788;28;20174;-70
2021/07/10 10:17:58;;;;;;;5.80;5.10;;;23.20;60.20;;;;;;5053458;28;20250;-69
2021/07/10 10:20:24;;;;;;;6.18;5.68;;;23.20;60.10;;;;;;5054012;28;20173;-69
2021/07/10 10:22:49;;;;;;;5.90;5.30;;;23.20;60.10;;;;;;5052242;28;20241;-68
2021/07/10 10:25:15;;;;;;;5.47;4.70;;;23.20;60.10;;;;;;5053018;28;20260;-68
2021/07/10 10:27:45;;;;;;;5.20;4.80;;;23.20;60.00;;;;;;5035612;28;20175;-68
2021/07/10 10:30:11;;;;;;;5.32;4.93;;;23.20;60.00;;;;;;5054341;28;20183;-64
2021/07/10 10:32:36;;;;;;;5.20;4.60;;;23.20;59.90;;;;;;5072442;28;20633;-69
2021/07/10 10:35:02;;;;;;;5.53;4.60;;;23.30;59.70;;;;;;5073546;28;20185;-68
2021/07/10 10:37:27;;;;;;;4.78;4.40;;;23.30;59.60;;;;;;5073482;28;20597;-69
2021/07/10 10:39:53;;;;;;;4.93;4.53;;;23.30;59.60;;;;;;5071308;28;20175;-71
2021/07/10 10:42:21;;;;;;;5.18;4.68;;;23.30;59.60;;;;;;5072300;28;20196;-67
2021/07/10 10:44:48;;;;;;;4.70;4.30;;;23.30;59.50;;;;;;5054321;28;20252;-66
2021/07/10 10:47:14;;;;;;;4.97;4.40;;;23.30;59.30;;;;;;5055938;28;20502;-67
2021/07/10 10:49:53;;;;;;;5.32;4.88;;;23.20;59.10;;;;;;5073235;28;20671;-67
2021/07/10 10:52:44;;;;;;;4.95;4.53;;;23.30;59.50;;;;;;5072641;28;20213;-67
2021/07/10 10:55:20;;;;;;;4.65;4.35;;;23.30;58.30;;;;;;5073189;28;20174;-66
2021/07/10 10:57:47;;;;;;;6.30;4.80;;;23.40;58.30;;;;;;5072974;28;20332;-67
2021/07/10 11:00:14;;;;;;;4.65;4.15;;;23.40;58.20;;;;;;5072499;28;20198;-67
2021/07/10 11:02:49;;;;;;;6.28;4.28;;;23.40;58.40;;;;;;5072885;28;20284;-67
2021/07/10 11:05:32;;;;;;;5.38;4.60;;;23.50;58.30;;;;;;5073078;28;20214;-68
2021/07/10 11:08:27;;;;;;;5.43;4.53;;;23.50;58.30;;;;;;5072391;28;20219;-68
2021/07/10 11:10:58;;;;;;;6.15;4.05;;;23.50;58.30;;;;;;5072629;28;20601;-68
2021/07/10 11:13:30;;;;;;;4.55;4.15;;;23.50;58.40;;;;;;5072232;28;20181;-68
2021/07/10 11:16:06;;;;;;;5.53;4.53;;;23.50;58.60;;;;;;5072898;28;20178;-68
2021/07/10 11:18:51;;;;;;;5.55;4.57;;;23.50;58.80;;;;;;5072293;28;20174;-68
2021/07/10 11:21:35;;;;;;;5.97;4.60;;;23.40;58.80;;;;;;5072226;28;20263;-67
2021/07/10 11:26:56;;;;;;;4.40;4.00;;;23.50;58.80;;;;;;5072465;28;20214;-67
2021/07/10 11:29:25;;;;;;;4.88;4.38;;;23.50;58.80;;;;;;5072819;28;20174;-68
2021/07/10 11:31:51;;;;;;;5.43;3.92;;;23.50;58.80;;;;;;5056659;28;20171;-66
2021/07/10 11:34:21;;;;;;;5.40;4.10;;;23.50;58.80;;;;;;5052029;28;20566;-66
2021/07/10 11:37:13;;;;;;;5.53;4.25;;;23.50;58.80;;;;;;5050995;28;20203;-67
2021/07/10 11:39:40;;;;;;;6.78;5.05;;;23.50;58.80;;;;;;5052624;28;20183;-66
2021/07/10 11:42:18;;;;;;;5.53;4.85;;;23.50;58.70;;;;;;5052033;28;20633;-67
2021/07/10 11:44:44;;;;;;;5.45;4.93;;;23.60;58.60;;;;;;5052422;28;20233;-68
2021/07/10 11:47:09;;;;;;;5.10;3.70;;;23.60;58.50;;;;;;5052490;28;20637;-67
2021/07/10 11:49:35;;;;;;;5.95;4.38;;;23.60;58.30;;;;;;5051494;28;20201;-68
2021/07/10 11:52:04;;;;;;;5.20;3.92;;;23.70;58.30;;;;;;5052313;28;20270;-67
2021/07/10 11:54:29;;;;;;;4.80;4.40;;;23.80;58.30;;;;;;5052132;28;20755;-68
2021/07/10 11:56:55;;;;;;;4.47;4.07;;;23.80;58.20;;;;;;5051882;28;20262;-67
2021/07/10 11:59:21;;;;;;;4.50;4.10;;;23.80;58.20;;;;;;5052470;28;20183;-65
2021/07/10 12:01:47;;;;;;;5.93;4.70;;;23.90;58.20;;;;;;5051918;28;20179;-66
2021/07/10 12:04:12;;;;;;;5.05;4.45;;;23.90;58.30;;;;;;5050301;28;20691;-66
2021/07/10 12:06:38;;;;;;;4.90;4.45;;;23.90;58.10;;;;;;5052200;28;20187;-66
2021/07/10 12:09:03;;;;;;;4.90;4.07;;;23.90;58.10;;;;;;5051981;28;20178;-67
2021/07/10 12:11:29;;;;;;;7.18;4.82;;;23.90;58.20;;;;;;5052067;28;20172;-66
2021/07/10 12:14:06;;;;;;;5.72;4.88;;;23.80;58.20;;;;;;5052615;28;20171;-66
2021/07/10 12:16:37;;;;;;;5.38;4.32;;;23.90;58.10;;;;;;5051278;28;20179;-66
2021/07/10 12:19:03;;;;;;;4.57;4.13;;;23.90;58.10;;;;;;5052483;28;20175;-66
2021/07/10 12:21:28;;;;;;;4.95;4.05;;;23.90;58.10;;;;;;5052502;28;20502;-66
2021/07/10 12:23:56;;;;;;;5.43;4.40;;;23.80;58.10;;;;;;5051068;28;20234;-66
2021/07/10 12:26:25;;;;;;;5.38;3.97;;;23.80;58.10;;;;;;5052240;28;20171;-64
2021/07/10 12:28:54;;;;;;;5.18;4.70;;;23.80;58.10;;;;;;5052351;28;20175;-65
2021/07/10 12:31:20;;;;;;;4.57;4.18;;;23.80;58.10;;;;;;5066786;28;20179;-65
2021/07/10 12:33:52;;;;;;;5.00;4.45;;;23.80;58.00;;;;;;5075843;28;20651;-65
2021/07/10 12:36:24;;;;;;;4.95;4.40;;;23.90;57.80;;;;;;5078372;28;20664;-66
2021/07/10 12:38:57;;;;;;;6.95;4.63;;;24.00;57.70;;;;;;5074518;28;20178;-67
2021/07/10 12:41:36;;;;;;;4.43;4.03;;;24.00;57.60;;;;;;5075733;28;20202;-66
2021/07/10 12:44:09;;;;;;;4.20;3.90;;;24.00;57.40;;;;;;5075737;28;20202;-66
2021/07/10 12:46:53;;;;;;;5.00;4.35;;;24.00;57.20;;;;;;5074750;28;20182;-66
2021/07/10 12:49:19;;;;;;;4.32;3.92;;;24.00;57.30;;;;;;5075589;28;20213;-66